Time;durP1;ratioP1;P1;durP2;ratioP2;P2;SDS_P1;SDS_P2;PMS_P1;PMS_P2;Temp;Humidity;BMP_temperature;BMP_pressure;BME280_temperature;BME280_humidity;BME280_pressure;Samples;Min_cycle;Max_cycle;Signal;HPM_P1;HPM_P2
2023/10/07 00:00:48;;;;;;;2.63;1.30;;;16.80;99.90;;;;;;5035656;28;20437;-66
2023/10/07 00:03:17;;;;;;;2.83;1.58;;;16.80;99.90;;;;;;5035686;28;20048;-67
2023/10/07 00:05:46;;;;;;;2.27;1.47;;;16.90;99.90;;;;;;5053711;28;20124;-67
2023/10/07 00:08:21;;;;;;;2.55;1.60;;;16.80;99.90;;;;;;5053650;28;20091;-67
2023/10/07 00:10:49;;;;;;;3.20;1.48;;;16.90;99.90;;;;;;5053614;28;20041;-67
2023/10/07 00:13:19;;;;;;;2.72;1.40;;;16.90;99.90;;;;;;5018604;28;20049;-67
2023/10/07 00:15:48;;;;;;;2.38;1.27;;;16.80;99.90;;;;;;5035525;28;20033;-67
2023/10/07 00:18:15;;;;;;;3.10;1.40;;;16.90;99.90;;;;;;5053469;28;20395;-67
2023/10/07 00:20:44;;;;;;;1.40;0.95;;;16.90;99.90;;;;;;5053112;28;20041;-66
2023/10/07 00:23:12;;;;;;;3.60;1.75;;;16.90;99.90;;;;;;5035266;28;20044;-66
2023/10/07 00:25:38;;;;;;;2.45;1.30;;;16.90;99.90;;;;;;5035163;28;20455;-66
2023/10/07 00:28:17;;;;;;;2.80;1.40;;;16.90;99.90;;;;;;5053284;28;20087;-66
2023/10/07 00:30:45;;;;;;;2.08;1.45;;;16.90;99.90;;;;;;5053304;28;20036;-67
2023/10/07 00:33:10;;;;;;;3.60;1.88;;;16.90;99.90;;;;;;5053205;28;20041;-65
2023/10/07 00:35:37;;;;;;;3.05;1.50;;;16.90;99.90;;;;;;5035125;28;20390;-65
2023/10/07 00:38:02;;;;;;;1.90;1.27;;;17.00;99.90;;;;;;5052903;28;20045;-65
2023/10/07 00:40:32;;;;;;;2.88;1.50;;;16.90;99.90;;;;;;5053176;28;20040;-65
2023/10/07 00:42:58;;;;;;;1.85;1.20;;;16.90;99.90;;;;;;5052947;28;20041;-65
2023/10/07 00:45:27;;;;;;;2.92;1.38;;;16.90;99.90;;;;;;5053082;28;20040;-65
2023/10/07 00:48:00;;;;;;;3.33;1.88;;;16.90;99.90;;;;;;5053017;28;20447;-65
2023/10/07 00:50:27;;;;;;;3.22;1.52;;;16.80;99.90;;;;;;5052816;28;20048;-65
2023/10/07 00:55:30;;;;;;;2.10;1.30;;;16.90;99.90;;;;;;5053029;28;20048;-65
2023/10/07 01:08:30;;;;;;;3.00;1.40;;;16.90;99.90;;;;;;5052851;28;20053;-65
2023/10/07 01:13:48;;;;;;;4.00;1.58;;;16.90;99.90;;;;;;5052497;28;20128;-65
2023/10/07 01:16:25;;;;;;;3.45;1.55;;;16.90;99.90;;;;;;5052575;28;20132;-65
2023/10/07 01:18:51;;;;;;;2.78;1.25;;;16.90;99.90;;;;;;5034646;28;20393;-65
2023/10/07 01:21:31;;;;;;;5.32;1.85;;;16.90;99.90;;;;;;5034724;28;20075;-65
2023/10/07 01:23:58;;;;;;;2.78;1.30;;;16.80;99.90;;;;;;5052479;28;20059;-65
2023/10/07 01:26:29;;;;;;;2.08;1.20;;;16.80;99.90;;;;;;5056316;28;20052;-65
2023/10/07 01:29:11;;;;;;;3.10;2.03;;;16.70;99.90;;;;;;5038483;28;20081;-65
2023/10/07 01:31:40;;;;;;;2.95;1.65;;;16.70;99.90;;;;;;5056611;28;20118;-65
2023/10/07 01:34:08;;;;;;;2.60;1.45;;;16.70;99.90;;;;;;5056163;28;20132;-65
2023/10/07 01:36:35;;;;;;;2.35;1.33;;;16.70;99.90;;;;;;5056579;28;20037;-65
2023/10/07 01:39:01;;;;;;;1.55;1.10;;;16.70;99.90;;;;;;5056568;28;20045;-65
2023/10/07 01:41:27;;;;;;;2.53;1.30;;;16.70;99.90;;;;;;5038481;28;20408;-65
2023/10/07 01:43:59;;;;;;;4.50;1.83;;;16.70;99.90;;;;;;5056235;28;20045;-65
2023/10/07 01:46:30;;;;;;;2.25;1.30;;;16.60;99.90;;;;;;5056424;28;20378;-65
2023/10/07 01:48:58;;;;;;;2.95;1.67;;;16.60;99.90;;;;;;5056272;28;20045;-65
2023/10/07 01:51:29;;;;;;;2.10;1.30;;;16.60;99.90;;;;;;5056365;28;20044;-65
2023/10/07 01:54:02;;;;;;;2.90;1.50;;;16.60;99.90;;;;;;5056155;28;20041;-65
2023/10/07 01:56:29;;;;;;;2.60;1.67;;;16.50;99.90;;;;;;5056214;28;20033;-65
2023/10/07 01:59:04;;;;;;;2.03;1.33;;;16.60;99.90;;;;;;5055814;28;20045;-65
2023/10/07 02:01:29;;;;;;;4.28;1.73;;;16.60;99.90;;;;;;5056107;28;20386;-65
2023/10/07 02:03:59;;;;;;;2.72;1.35;;;16.60;99.90;;;;;;5056072;28;20112;-65
2023/10/07 02:06:26;;;;;;;1.85;1.20;;;16.60;99.90;;;;;;5056013;28;20043;-65
2023/10/07 02:08:54;;;;;;;2.05;1.25;;;16.60;99.90;;;;;;5037657;28;20045;-65
2023/10/07 02:11:28;;;;;;;2.63;1.20;;;16.60;99.90;;;;;;5055850;28;20443;-65
2023/10/07 02:13:55;;;;;;;2.95;1.55;;;16.60;99.90;;;;;;5055827;28;20041;-65
2023/10/07 02:16:21;;;;;;;2.33;1.45;;;16.60;99.90;;;;;;5037641;28;20048;-65
2023/10/07 02:18:47;;;;;;;2.92;1.75;;;16.60;99.90;;;;;;5037747;28;20180;-65
2023/10/07 02:21:17;;;;;;;2.13;1.05;;;16.60;99.90;;;;;;5055761;28;20551;-65
2023/10/07 02:23:45;;;;;;;2.92;1.65;;;16.70;99.90;;;;;;5055667;28;20480;-65
2023/10/07 02:26:19;;;;;;;2.58;1.20;;;16.70;99.90;;;;;;5055586;28;20047;-65
2023/10/07 02:28:51;;;;;;;3.22;1.50;;;17.30;99.90;;;;;;5055539;28;20091;-65
2023/10/07 02:31:18;;;;;;;2.08;1.40;;;16.70;99.90;;;;;;5055524;28;20029;-65
2023/10/07 02:33:45;;;;;;;1.48;1.33;;;16.80;99.90;;;;;;5037195;28;20066;-65
2023/10/07 02:36:38;;;;;;;1.95;1.17;;;16.80;99.90;;;;;;5037167;28;20044;-65
2023/10/07 02:39:18;;;;;;;1.55;1.17;;;16.80;99.90;;;;;;5055130;28;20045;-65
2023/10/07 02:41:47;;;;;;;;;;;16.80;99.90;;;;;;5055481;28;20078;-65
2023/10/07 02:44:28;;;;;;;1.60;1.20;;;16.90;99.90;;;;;;5055255;28;19917;-65
2023/10/07 02:46:56;;;;;;;1.90;1.10;;;16.90;99.90;;;;;;5055194;28;20041;-65
2023/10/07 02:49:22;;;;;;;1.48;1.13;;;16.90;99.90;;;;;;5055155;28;20072;-65
2023/10/07 02:51:56;;;;;;;1.75;1.38;;;17.00;99.90;;;;;;5037123;28;20511;-65
2023/10/07 02:54:22;;;;;;;1.98;1.25;;;17.00;99.90;;;;;;5055207;28;20041;-65
2023/10/07 02:56:56;;;;;;;1.10;1.00;;;17.10;99.90;;;;;;5055087;28;20041;-65
2023/10/07 02:59:35;;;;;;;2.65;1.63;;;17.10;99.90;;;;;;5055067;28;20068;-65
2023/10/07 03:02:13;;;;;;;1.20;1.10;;;17.10;99.90;;;;;;5036779;28;20084;-65
2023/10/07 03:04:43;;;;;;;2.70;1.30;;;17.10;99.90;;;;;;5054958;28;20080;-65
2023/10/07 03:07:16;;;;;;;2.42;1.42;;;17.10;99.90;;;;;;5036617;28;20044;-65
2023/10/07 03:10:04;;;;;;;2.28;1.33;;;17.20;99.90;;;;;;5054837;28;20056;-65
2023/10/07 03:12:30;;;;;;;2.50;1.40;;;17.20;99.90;;;;;;5054767;28;20049;-65
2023/10/07 03:15:00;;;;;;;1.30;1.00;;;17.20;99.90;;;;;;5054727;28;20552;-65
2023/10/07 03:17:39;;;;;;;1.75;1.20;;;17.20;99.90;;;;;;5054365;28;20072;-65
2023/10/07 03:20:47;;;;;;;2.25;1.02;;;17.20;99.90;;;;;;5036530;28;20049;-65
2023/10/07 03:23:14;;;;;;;1.60;0.88;;;17.20;99.90;;;;;;5031495;28;20083;-65
2023/10/07 03:26:05;;;;;;;3.17;1.40;;;17.20;99.90;;;;;;5054497;28;20091;-65
2023/10/07 03:28:35;;;;;;;2.67;1.35;;;17.20;99.90;;;;;;5054074;28;20091;-65
2023/10/07 03:31:11;;;;;;;2.35;1.20;;;17.20;99.90;;;;;;5054396;28;20040;-65
2023/10/07 03:33:45;;;;;;;2.80;1.42;;;17.20;99.90;;;;;;5053889;28;20084;-65
2023/10/07 03:41:35;;;;;;;2.78;1.42;;;17.20;99.90;;;;;;5054197;28;20049;-65
2023/10/07 03:44:04;;;;;;;3.42;1.10;;;17.20;99.90;;;;;;5053867;28;20047;-65
2023/10/07 03:46:30;;;;;;;1.13;0.90;;;17.20;99.90;;;;;;5054050;28;20048;-65
2023/10/07 03:48:56;;;;;;;2.78;1.30;;;17.20;99.90;;;;;;5053191;28;20459;-65
2023/10/07 03:51:22;;;;;;;0.90;0.80;;;17.60;99.90;;;;;;5054049;28;20041;-65
2023/10/07 03:53:54;;;;;;;1.98;0.90;;;17.20;99.90;;;;;;5053846;28;20532;-65
2023/10/07 03:56:20;;;;;;;1.55;1.00;;;17.20;99.90;;;;;;5053903;28;20396;-65
2023/10/07 03:58:46;;;;;;;1.98;1.20;;;17.20;99.90;;;;;;5053894;28;20043;-65
2023/10/07 04:01:19;;;;;;;1.33;0.80;;;17.20;99.90;;;;;;5053875;28;20116;-64
2023/10/07 04:03:50;;;;;;;3.17;1.70;;;17.20;99.90;;;;;;5053838;28;20429;-66
2023/10/07 04:06:21;;;;;;;1.65;1.15;;;17.20;99.90;;;;;;5053831;28;20041;-67
2023/10/07 04:08:52;;;;;;;1.30;0.88;;;17.20;99.90;;;;;;5035431;28;20045;-66
2023/10/07 04:11:25;;;;;;;2.13;1.30;;;17.20;99.90;;;;;;5035823;28;20036;-66
2023/10/07 04:13:53;;;;;;;2.40;1.42;;;17.20;99.90;;;;;;5053423;28;20136;-65
2023/10/07 04:16:25;;;;;;;2.05;0.93;;;17.60;99.90;;;;;;5019042;28;20076;-65
2023/10/07 04:18:53;;;;;;;1.52;1.10;;;17.40;99.90;;;;;;5053218;28;20070;-65
2023/10/07 04:21:20;;;;;;;2.40;1.40;;;17.20;99.90;;;;;;5053503;28;20037;-65
2023/10/07 04:23:46;;;;;;;1.88;1.15;;;17.20;99.90;;;;;;5053468;28;20052;-65
2023/10/07 04:26:21;;;;;;;2.38;1.27;;;17.20;99.90;;;;;;5035331;28;20040;-65
2023/10/07 04:28:48;;;;;;;2.30;1.30;;;17.20;99.90;;;;;;5053278;28;20056;-65
2023/10/07 04:31:16;;;;;;;3.60;1.30;;;17.20;99.90;;;;;;5053354;28;20507;-65
2023/10/07 04:33:48;;;;;;;2.35;1.13;;;17.20;99.90;;;;;;5053032;28;20393;-65
2023/10/07 04:36:17;;;;;;;1.88;1.23;;;17.20;99.90;;;;;;5053270;28;20049;-65
2023/10/07 04:46:24;;;;;;;2.88;1.30;;;17.20;99.90;;;;;;5052853;28;20045;-65
2023/10/07 04:48:54;;;;;;;2.90;1.52;;;17.20;99.90;;;;;;5052678;28;20045;-65
2023/10/07 04:53:59;;;;;;;1.52;1.08;;;17.20;99.90;;;;;;5053044;28;20485;-65
2023/10/07 04:56:26;;;;;;;0.80;0.80;;;17.20;99.90;;;;;;5052725;28;20041;-65
2023/10/07 04:58:55;;;;;;;2.10;0.93;;;17.40;99.90;;;;;;5052862;28;20044;-65
2023/10/07 05:01:33;;;;;;;1.30;1.10;;;17.20;99.90;;;;;;5053023;28;20051;-65
2023/10/07 05:04:09;;;;;;;3.50;1.75;;;17.20;99.90;;;;;;5053042;28;20055;-65
2023/10/07 05:06:37;;;;;;;2.15;1.30;;;17.20;99.90;;;;;;5052601;28;20127;-65
2023/10/07 05:09:10;;;;;;;3.22;1.40;;;17.20;99.90;;;;;;5034784;28;20044;-65
2023/10/07 05:11:37;;;;;;;2.08;1.25;;;17.20;99.90;;;;;;5052555;28;20033;-65
2023/10/07 05:14:03;;;;;;;1.77;0.98;;;17.20;99.90;;;;;;5034928;28;20124;-66
2023/10/07 05:16:29;;;;;;;0.95;0.88;;;17.20;99.90;;;;;;5053128;28;20485;-67
2023/10/07 05:18:55;;;;;;;3.38;1.90;;;17.10;99.90;;;;;;5052569;28;20044;-67
2023/10/07 05:21:22;;;;;;;1.52;0.98;;;17.20;99.90;;;;;;5018318;28;20124;-67
2023/10/07 05:23:48;;;;;;;2.03;1.08;;;17.20;99.90;;;;;;5035066;28;20084;-67
2023/10/07 05:26:17;;;;;;;2.47;1.45;;;17.10;99.90;;;;;;5052796;28;20083;-67
2023/10/07 05:28:46;;;;;;;2.75;1.50;;;17.30;99.90;;;;;;5034512;28;20056;-67
2023/10/07 05:31:14;;;;;;;1.67;1.20;;;17.30;99.90;;;;;;5052433;28;20033;-67
2023/10/07 05:33:40;;;;;;;2.72;1.30;;;17.10;99.90;;;;;;5052411;28;20056;-67
2023/10/07 05:36:11;;;;;;;2.72;1.65;;;17.10;99.90;;;;;;5052710;28;20390;-67
2023/10/07 05:38:38;;;;;;;2.20;1.20;;;17.10;99.90;;;;;;5052609;28;20049;-67
2023/10/07 05:41:06;;;;;;;1.70;1.30;;;17.10;99.90;;;;;;5034858;28;20040;-67
2023/10/07 05:43:32;;;;;;;2.78;1.75;;;17.10;99.90;;;;;;5052623;28;20048;-67
2023/10/07 05:45:58;;;;;;;3.15;1.52;;;17.10;99.90;;;;;;5052290;28;20041;-67
2023/10/07 05:48:25;;;;;;;1.80;1.33;;;17.10;99.90;;;;;;5052460;28;20037;-67
2023/10/07 05:50:54;;;;;;;3.22;1.63;;;17.10;99.90;;;;;;5052141;28;20044;-67
2023/10/07 05:53:20;;;;;;;1.73;1.13;;;17.10;99.90;;;;;;5052541;28;20068;-67
2023/10/07 05:55:47;;;;;;;1.70;1.00;;;17.20;99.90;;;;;;5034416;28;20043;-67
2023/10/07 05:58:14;;;;;;;2.60;1.65;;;17.10;99.90;;;;;;5052629;28;20045;-67
2023/10/07 06:00:40;;;;;;;2.13;1.52;;;17.10;99.90;;;;;;5052045;28;20044;-67
2023/10/07 06:03:08;;;;;;;1.48;1.05;;;17.10;99.90;;;;;;5052425;28;20044;-67
2023/10/07 06:05:37;;;;;;;1.10;1.00;;;17.10;99.90;;;;;;5052372;28;20072;-67
2023/10/07 06:08:05;;;;;;;1.77;1.30;;;17.10;99.90;;;;;;5034326;28;20045;-67
2023/10/07 06:10:33;;;;;;;1.65;1.08;;;17.10;99.90;;;;;;5052747;28;20037;-67
2023/10/07 06:12:59;;;;;;;1.65;1.25;;;17.10;99.90;;;;;;5038092;28;20044;-67
2023/10/07 06:15:25;;;;;;;1.88;1.10;;;17.10;99.90;;;;;;5037857;28;20041;-68
2023/10/07 06:17:51;;;;;;;1.60;1.17;;;17.10;99.90;;;;;;5055837;28;20120;-67
2023/10/07 06:20:26;;;;;;;2.80;1.60;;;17.10;99.90;;;;;;5055823;28;20080;-67
2023/10/07 06:22:55;;;;;;;1.38;1.05;;;17.10;99.90;;;;;;5037678;28;20116;-67
2023/10/07 06:25:30;;;;;;;1.38;0.93;;;17.10;99.90;;;;;;5055554;28;20033;-67
2023/10/07 06:27:59;;;;;;;3.95;1.83;;;17.10;99.90;;;;;;5055571;28;20469;-69
2023/10/07 06:30:26;;;;;;;2.63;1.42;;;17.00;99.90;;;;;;5037726;28;20072;-69
2023/10/07 06:33:03;;;;;;;1.92;1.33;;;17.10;99.90;;;;;;5037370;28;20116;-68
2023/10/07 06:35:29;;;;;;;3.70;1.88;;;17.10;99.90;;;;;;5055528;28;20051;-67
2023/10/07 06:37:57;;;;;;;2.60;1.52;;;17.00;99.90;;;;;;5055421;28;20418;-68
2023/10/07 06:40:29;;;;;;;2.03;1.17;;;16.80;99.90;;;;;;5037221;28;20036;-72
2023/10/07 06:42:58;;;;;;;1.63;1.20;;;17.00;99.90;;;;;;5037230;28;20037;-67
2023/10/07 06:45:38;;;;;;;1.83;1.35;;;17.10;99.90;;;;;;5037067;28;20053;-68
2023/10/07 06:48:09;;;;;;;2.03;1.20;;;17.00;99.90;;;;;;5055269;28;20037;-68
2023/10/07 06:50:35;;;;;;;2.00;1.00;;;17.00;99.90;;;;;;5037279;28;20295;-68
2023/10/07 06:53:02;;;;;;;3.08;1.42;;;17.00;99.90;;;;;;5054924;28;20041;-67
2023/10/07 06:55:35;;;;;;;1.83;1.10;;;17.00;99.90;;;;;;5037033;28;20517;-68
2023/10/07 06:58:03;;;;;;;4.43;1.52;;;17.00;99.90;;;;;;5054742;28;20045;-69
2023/10/07 07:00:46;;;;;;;2.33;1.45;;;17.00;99.90;;;;;;5037262;28;20102;-68
2023/10/07 07:03:13;;;;;;;2.55;1.38;;;17.00;99.90;;;;;;5054719;28;20049;-68
2023/10/07 07:05:40;;;;;;;2.30;1.20;;;17.00;99.90;;;;;;5054654;28;20037;-68
2023/10/07 07:08:09;;;;;;;2.97;1.73;;;17.10;99.90;;;;;;5054811;28;20452;-67
2023/10/07 07:10:35;;;;;;;1.48;1.10;;;17.10;99.90;;;;;;5020224;28;20047;-68
2023/10/07 07:13:35;;;;;;;1.63;1.15;;;17.10;99.90;;;;;;5036703;28;20037;-68
2023/10/07 07:15:57;;;;;;;1.60;1.27;;;17.10;99.90;;;;;;5030891;28;20408;-69
2023/10/07 07:18:25;;;;;;;1.88;1.13;;;17.10;99.90;;;;;;5037286;28;20056;-68
2023/10/07 07:21:00;;;;;;;2.03;1.10;;;17.20;99.90;;;;;;5054366;28;20056;-67
2023/10/07 07:23:35;;;;;;;1.67;1.20;;;17.20;99.90;;;;;;5035597;28;20045;-67
2023/10/07 07:28:27;;;;;;;1.20;1.08;;;17.30;99.90;;;;;;5054447;28;20057;-71
2023/10/07 07:30:57;;;;;;;2.65;1.23;;;17.30;99.90;;;;;;5036336;28;20051;-70
2023/10/07 07:33:34;;;;;;;3.17;1.55;;;17.40;99.90;;;;;;5036495;28;20570;-66
2023/10/07 07:36:06;;;;;;;3.10;1.25;;;17.40;99.90;;;;;;5054161;28;20045;-70
2023/10/07 07:38:43;;;;;;;1.75;1.23;;;17.40;99.90;;;;;;5054340;28;20045;-68
2023/10/07 07:41:09;;;;;;;1.73;1.27;;;17.50;99.90;;;;;;5036135;28;20045;-72
2023/10/07 07:43:40;;;;;;;1.90;1.30;;;17.50;99.90;;;;;;5019886;28;20052;-66
2023/10/07 07:48:38;;;;;;;2.50;1.42;;;17.60;99.90;;;;;;5053683;28;20049;-64
2023/10/07 07:51:04;;;;;;;2.88;1.30;;;17.60;99.90;;;;;;5035881;28;20154;-63
2023/10/07 07:53:32;;;;;;;2.13;1.38;;;17.40;99.90;;;;;;5053624;28;20044;-64
2023/10/07 07:55:59;;;;;;;2.17;1.27;;;17.70;99.90;;;;;;5053850;28;20143;-64
2023/10/07 07:58:25;;;;;;;2.50;1.45;;;17.70;99.90;;;;;;5053850;28;20488;-64
2023/10/07 08:01:15;;;;;;;1.88;1.55;;;17.70;99.90;;;;;;5053751;28;20048;-67
2023/10/07 08:03:41;;;;;;;1.85;1.60;;;17.90;99.90;;;;;;5035784;28;20041;-67
2023/10/07 08:06:06;;;;;;;1.52;1.20;;;17.50;99.90;;;;;;5035777;28;20240;-66
2023/10/07 08:08:36;;;;;;;1.33;1.10;;;17.70;99.90;;;;;;5035793;28;20114;-67
2023/10/07 08:11:04;;;;;;;1.90;1.27;;;17.80;99.90;;;;;;5035794;28;20489;-66
2023/10/07 08:13:30;;;;;;;2.75;1.88;;;17.90;99.90;;;;;;5035413;28;20033;-66
2023/10/07 08:15:56;;;;;;;1.75;1.45;;;18.40;99.90;;;;;;5035692;28;20560;-67
2023/10/07 08:18:31;;;;;;;2.45;1.63;;;17.90;99.90;;;;;;5053476;28;20477;-66
2023/10/07 08:21:07;;;;;;;2.42;1.25;;;18.20;99.90;;;;;;5035821;28;20233;-68
2023/10/07 08:23:36;;;;;;;1.52;1.30;;;18.00;99.90;;;;;;5053183;28;20463;-66
2023/10/07 08:26:11;;;;;;;2.78;1.40;;;18.20;99.90;;;;;;5018804;28;20106;-67
2023/10/07 08:31:13;;;;;;;1.85;1.50;;;18.10;99.90;;;;;;5053066;28;20049;-66
2023/10/07 08:33:40;;;;;;;1.63;1.27;;;18.10;99.90;;;;;;5052679;28;20057;-66
2023/10/07 08:36:07;;;;;;;2.22;1.35;;;18.30;99.90;;;;;;5035325;28;20481;-66
2023/10/07 08:38:50;;;;;;;1.73;1.40;;;18.10;99.90;;;;;;5018630;28;20041;-66
2023/10/07 08:41:18;;;;;;;2.60;1.42;;;18.20;99.90;;;;;;5034909;28;20473;-66
2023/10/07 08:43:45;;;;;;;1.35;1.20;;;18.40;99.90;;;;;;5053022;28;20090;-66
2023/10/07 08:46:15;;;;;;;3.17;1.88;;;18.20;99.90;;;;;;5035011;28;20132;-64
2023/10/07 08:48:50;;;;;;;1.60;1.50;;;18.30;99.90;;;;;;5052933;28;20116;-64
2023/10/07 08:51:25;;;;;;;2.50;2.00;;;18.30;99.90;;;;;;5052965;28;20043;-64
2023/10/07 08:53:57;;;;;;;3.75;1.75;;;18.50;99.90;;;;;;5052829;28;20443;-64
2023/10/07 08:56:27;;;;;;;3.47;1.80;;;18.40;99.90;;;;;;5052695;28;20045;-69
2023/10/07 08:58:53;;;;;;;1.67;1.48;;;18.40;99.90;;;;;;5034630;28;20041;-65
2023/10/07 09:01:24;;;;;;;2.35;1.70;;;18.70;99.90;;;;;;5052840;28;20044;-66
2023/10/07 09:03:52;;;;;;;1.83;1.10;;;19.00;99.90;;;;;;5052566;28;20123;-66
2023/10/07 09:06:19;;;;;;;3.42;1.65;;;18.50;99.90;;;;;;5034608;28;20411;-65
2023/10/07 09:08:45;;;;;;;2.17;1.52;;;19.00;99.90;;;;;;5052673;28;20044;-65
2023/10/07 09:11:13;;;;;;;2.42;1.88;;;;;;;;;;5034460;28;20493;-66
2023/10/07 09:13:39;;;;;;;3.78;1.52;;;18.80;99.90;;;;;;5034552;28;20114;-65
2023/10/07 09:16:07;;;;;;;1.98;1.58;;;;;;;;;;5052569;28;20404;-66
2023/10/07 09:18:41;;;;;;;3.53;1.60;;;;;;;;;;5034800;28;20053;-65
2023/10/07 09:21:19;;;;;;;3.95;2.03;;;18.80;99.90;;;;;;5034695;28;20083;-65
2023/10/07 09:24:02;;;;;;;3.20;2.25;;;18.70;99.90;;;;;;5034556;28;20086;-65
2023/10/07 09:26:34;;;;;;;3.33;1.77;;;18.60;99.90;;;;;;5034710;28;20049;-66
2023/10/07 09:29:34;;;;;;;2.80;1.33;;;18.60;99.90;;;;;;5052148;28;20045;-65
2023/10/07 09:32:05;;;;;;;2.47;1.55;;;18.60;99.90;;;;;;5028762;28;20067;-65
2023/10/07 09:34:44;;;;;;;1.38;1.13;;;18.60;99.90;;;;;;5052203;28;20084;-65
2023/10/07 09:37:13;;;;;;;1.77;1.48;;;18.60;99.90;;;;;;5052238;28;20052;-65
2023/10/07 09:39:44;;;;;;;1.73;1.45;;;19.00;99.90;;;;;;5052484;28;20481;-65
2023/10/07 09:42:26;;;;;;;2.88;1.63;;;18.50;99.90;;;;;;5052157;28;20073;-65
2023/10/07 09:45:00;;;;;;;4.28;3.38;;;18.60;99.90;;;;;;5034547;28;20053;-65
2023/10/07 09:47:27;;;;;;;2.45;1.70;;;18.50;99.90;;;;;;5037821;28;20124;-65
2023/10/07 09:49:58;;;;;;;2.45;1.48;;;18.40;99.90;;;;;;5056065;28;20484;-65
2023/10/07 09:52:29;;;;;;;2.65;1.50;;;18.50;99.90;;;;;;5056115;28;20037;-65
2023/10/07 09:55:18;;;;;;;2.17;1.35;;;18.50;99.90;;;;;;5037827;28;20048;-67
2023/10/07 09:57:47;;;;;;;3.00;1.83;;;18.50;99.90;;;;;;5055739;28;20115;-66
2023/10/07 10:01:02;;;;;;;2.25;1.27;;;18.50;99.90;;;;;;5037822;28;20041;-66
2023/10/07 10:04:00;;;;;;;2.42;1.42;;;18.60;99.90;;;;;;5004592;28;20041;-67
2023/10/07 10:06:33;;;;;;;2.55;1.83;;;18.60;99.90;;;;;;5056024;28;20036;-69
2023/10/07 10:09:09;;;;;;;2.30;1.48;;;18.70;99.90;;;;;;5037609;28;20029;-69
2023/10/07 10:14:16;;;;;;;4.00;1.95;;;18.50;99.90;;;;;;5055730;28;20073;-68
2023/10/07 10:16:47;;;;;;;2.45;1.50;;;18.70;99.90;;;;;;5037780;28;20120;-68
2023/10/07 10:19:25;;;;;;;;;;;18.80;99.90;;;;;;5037774;28;20128;-69
2023/10/07 10:21:52;;;;;;;1.50;1.40;;;18.90;99.90;;;;;;5037307;28;19916;-68
2023/10/07 10:24:23;;;;;;;3.25;2.45;;;;;;;;;;5020879;28;20048;-69
2023/10/07 10:26:50;;;;;;;1.55;1.40;;;;;;;;;;5037301;28;20109;-69
2023/10/07 10:29:25;;;;;;;2.20;1.50;;;19.10;99.90;;;;;;5055128;28;20167;-69
2023/10/07 10:31:53;;;;;;;1.95;1.50;;;19.10;99.90;;;;;;5037575;28;20082;-65
2023/10/07 10:34:20;;;;;;;1.52;1.27;;;19.20;99.90;;;;;;5055108;28;20049;-66
2023/10/07 10:36:49;;;;;;;2.88;1.80;;;19.40;99.90;;;;;;5037609;28;20600;-65
2023/10/07 10:39:20;;;;;;;2.70;2.20;;;19.30;99.90;;;;;;5055377;28;20041;-65
2023/10/07 10:41:46;;;;;;;2.35;1.60;;;20.10;99.90;;;;;;5055308;28;20049;-65
2023/10/07 10:44:12;;;;;;;2.63;2.00;;;19.40;99.90;;;;;;5037100;28;20047;-65
2023/10/07 10:46:50;;;;;;;2.53;1.92;;;19.60;99.90;;;;;;5037298;28;20048;-65
2023/10/07 10:49:20;;;;;;;1.52;1.42;;;19.40;99.90;;;;;;5037020;28;20123;-68
2023/10/07 10:51:48;;;;;;;2.97;1.77;;;20.00;99.90;;;;;;5037171;28;20045;-66
2023/10/07 10:54:18;;;;;;;2.08;1.33;;;19.30;99.90;;;;;;5037000;28;20060;-65
2023/10/07 10:57:00;;;;;;;;;;;19.40;99.90;;;;;;5054933;28;20416;-65
2023/10/07 10:59:48;;;;;;;2.60;1.50;;;19.30;99.30;;;;;;5037220;28;20364;-65
2023/10/07 11:02:20;;;;;;;4.22;2.10;;;19.30;99.90;;;;;;5054984;28;20148;-65
2023/10/07 11:04:47;;;;;;;1.90;1.30;;;19.60;99.90;;;;;;5055069;28;20048;-64
2023/10/07 11:07:15;;;;;;;2.78;1.85;;;19.40;98.80;;;;;;5054907;28;20049;-64
2023/10/07 11:09:42;;;;;;;2.65;1.63;;;19.40;99.20;;;;;;5036683;28;20143;-64
2023/10/07 11:12:09;;;;;;;1.52;1.30;;;19.60;98.40;;;;;;5054762;28;20036;-63
2023/10/07 11:14:37;;;;;;;2.08;1.52;;;19.30;97.40;;;;;;5054486;28;20048;-64
2023/10/07 11:17:03;;;;;;;2.45;1.67;;;19.40;97.60;;;;;;5036497;28;20067;-64
2023/10/07 11:19:30;;;;;;;4.15;1.83;;;19.40;95.90;;;;;;5036591;28;20515;-68
2023/10/07 11:21:56;;;;;;;4.05;2.20;;;19.30;95.50;;;;;;5054390;28;20040;-64
2023/10/07 11:24:24;;;;;;;2.15;1.95;;;19.20;95.20;;;;;;5054288;28;20041;-64
2023/10/07 11:26:51;;;;;;;3.70;1.70;;;19.40;94.80;;;;;;5054265;28;20033;-64
2023/10/07 11:29:18;;;;;;;2.75;1.80;;;20.00;97.30;;;;;;5054411;28;20033;-63
2023/10/07 11:31:46;;;;;;;2.20;1.58;;;19.80;96.00;;;;;;5036159;28;20045;-64
2023/10/07 11:34:13;;;;;;;2.20;1.38;;;19.20;95.90;;;;;;5036349;28;20429;-64
2023/10/07 11:36:48;;;;;;;3.47;1.42;;;19.20;97.40;;;;;;5054323;28;20480;-67
2023/10/07 11:39:14;;;;;;;3.10;1.75;;;18.90;98.00;;;;;;5036138;28;20037;-67
2023/10/07 11:41:43;;;;;;;1.83;1.52;;;19.20;99.10;;;;;;5019613;28;20036;-67
2023/10/07 11:44:11;;;;;;;1.90;1.40;;;19.00;99.80;;;;;;5019598;28;20155;-67
2023/10/07 11:46:40;;;;;;;3.28;1.50;;;18.70;99.90;;;;;;5019747;28;20049;-67
2023/10/07 11:49:07;;;;;;;2.22;1.63;;;19.80;99.90;;;;;;5036123;28;20041;-67
2023/10/07 11:51:33;;;;;;;2.75;1.55;;;18.90;99.90;;;;;;5019428;28;20053;-67
2023/10/07 11:54:00;;;;;;;1.95;1.73;;;18.90;99.80;;;;;;5035873;28;20511;-66
2023/10/07 11:56:27;;;;;;;2.22;1.70;;;19.00;99.90;;;;;;5036058;28;20055;-63
2023/10/07 11:58:53;;;;;;;1.73;1.60;;;18.80;99.90;;;;;;5053772;28;20045;-63
2023/10/07 12:01:20;;;;;;;3.25;1.75;;;18.80;99.50;;;;;;5019566;28;20048;-65
2023/10/07 12:03:46;;;;;;;1.92;1.55;;;18.80;98.40;;;;;;5035869;28;20509;-66
2023/10/07 12:06:12;;;;;;;1.70;1.30;;;;;;;;;;5053729;28;20463;-64
2023/10/07 12:08:38;;;;;;;2.38;1.80;;;;;;;;;;5052941;28;20041;-66
2023/10/07 12:11:05;;;;;;;2.45;1.55;;;;;;;;;;5053677;28;20450;-64
2023/10/07 12:13:31;;;;;;;2.95;1.90;;;;;;;;;;5053562;28;20095;-64
2023/10/07 12:15:59;;;;;;;2.28;1.52;;;;;;;;;;5053755;28;20400;-65
2023/10/07 12:18:26;;;;;;;2.80;1.70;;;;;;;;;;5053636;28;20492;-65
2023/10/07 12:20:53;;;;;;;1.67;1.55;;;;;;;;;;5019132;28;20500;-65
2023/10/07 12:23:19;;;;;;;4.13;1.90;;;;;;;;;;5053231;28;20045;-65
2023/10/07 12:25:45;;;;;;;2.58;1.75;;;;;;;;;;5053565;28;20094;-65
2023/10/07 12:28:11;;;;;;;2.10;1.50;;;;;;;;;;5053232;28;20127;-65
2023/10/07 12:30:37;;;;;;;2.33;1.60;;;;;;;;;;5053368;28;20051;-65
2023/10/07 12:33:03;;;;;;;3.38;1.90;;;;;;;;;;5034998;28;20234;-65
2023/10/07 12:35:36;;;;;;;2.42;1.33;;;;;;;;;;5035309;28;20052;-65
2023/10/07 12:38:02;;;;;;;2.10;1.40;;;;;;;;;;5018583;28;20054;-65
2023/10/07 12:40:29;;;;;;;2.35;1.80;;;;;;;;;;5052881;28;20047;-65
2023/10/07 12:42:56;;;;;;;2.10;1.75;;;;;;;;;;5053225;28;20386;-65
2023/10/07 12:45:22;;;;;;;3.25;1.67;;;;;;;;;;5035525;28;20040;-66
2023/10/07 12:47:51;;;;;;;3.05;1.73;;;;;;;;;;5052683;28;20053;-66
2023/10/07 12:50:20;;;;;;;2.38;1.50;;;;;;;;;;5052644;28;20091;-66
2023/10/07 12:53:04;;;;;;;1.75;1.60;;;;;;;;;;5018782;28;20037;-66
2023/10/07 12:55:34;;;;;;;2.60;1.58;;;;;;;;;;5052930;28;20049;-66
2023/10/07 12:58:05;;;;;;;2.20;1.90;;;;;;;;;;5053001;28;20063;-66
2023/10/07 13:00:33;;;;;;;3.38;1.58;;;;;;;;;;5052707;28;20120;-65
2023/10/07 13:03:02;;;;;;;2.25;1.60;;;;;;;;;;5052937;28;20049;-66
2023/10/07 13:05:32;;;;;;;2.33;1.73;;;;;;;;;;5034906;28;20076;-65
2023/10/07 13:07:59;;;;;;;2.38;2.15;;;;;;;;;;5034880;28;20503;-66
2023/10/07 13:10:26;;;;;;;1.92;1.73;;;;;;;;;;5052884;28;20049;-65
2023/10/07 13:12:55;;;;;;;2.45;1.80;;;;;;;;;;5034809;28;20043;-68
2023/10/07 13:15:30;;;;;;;1.60;1.30;;;;;;;;;;5034885;28;20504;-68
2023/10/07 13:18:01;;;;;;;2.58;1.88;;;;;;;;;;5052811;28;20070;-67
2023/10/07 13:20:27;;;;;;;3.00;2.10;;;;;;;;;;5036706;28;20049;-68
2023/10/07 13:22:55;;;;;;;3.75;1.63;;;;;;;;;;5039079;28;20124;-67
2023/10/07 13:25:21;;;;;;;2.65;1.50;;;;;;;;;;5039045;28;20041;-65
2023/10/07 13:27:48;;;;;;;5.43;2.38;;;;;;;;;;5038722;28;20060;-66
2023/10/07 13:30:16;;;;;;;2.35;1.50;;;;;;;;;;5056451;28;20084;-65
2023/10/07 13:32:46;;;;;;;1.50;1.40;;;;;;;;;;5056596;28;20041;-66
2023/10/07 13:35:15;;;;;;;2.25;1.60;;;;;;;;;;5038462;28;20064;-66
2023/10/07 13:37:43;;;;;;;2.20;1.50;;;;;;;;;;5021948;28;20080;-67
2023/10/07 13:40:19;;;;;;;2.75;2.00;;;;;;;;;;5056554;28;20041;-67
2023/10/07 13:42:52;;;;;;;1.58;1.38;;;;;;;;;;5021894;28;20052;-67
2023/10/07 13:45:25;;;;;;;2.03;1.45;;;;;;;;;;5038260;28;20098;-67
2023/10/07 13:47:51;;;;;;;3.40;1.92;;;;;;;;;;5038072;28;20037;-67
2023/10/07 13:50:33;;;;;;;2.38;1.48;;;;;;;;;;5056331;28;20083;-64
2023/10/07 13:58:10;;;;;;;2.42;1.50;;;;;;;;;;5055870;28;20041;-66
2023/10/07 14:03:06;;;;;;;1.75;1.58;;;;;;;;;;5038352;28;20055;-65
2023/10/07 14:05:41;;;;;;;3.50;1.70;;;;;;;;;;5021567;28;20037;-64
2023/10/07 14:08:16;;;;;;;1.98;1.58;;;;;;;;;;5038078;28;20048;-64
2023/10/07 14:10:50;;;;;;;2.42;1.42;;;;;;;;;;5038464;28;20041;-64